Time;durP1;ratioP1;P1;durP2;ratioP2;P2;SDS_P1;SDS_P2;PMS_P1;PMS_P2;Temp;Humidity;BMP_temperature;BMP_pressure;BME280_temperature;BME280_humidity;BME280_pressure;Samples;Min_cycle;Max_cycle;Signal;HPM_P1;HPM_P2
2022/11/29 00:01:36;;;;;;;94.32;26.48;;;;;;;;;;5073137;28;20043;-66
2022/11/29 00:04:02;;;;;;;85.40;25.35;;;;;;;;;;5057958;28;20037;-67
2022/11/29 00:06:30;;;;;;;101.43;27.00;;;;;;;;;;5084480;28;20106;-67
2022/11/29 00:08:58;;;;;;;108.15;28.08;;;6.80;99.90;;;;;;5080675;28;20039;-68
2022/11/29 00:14:15;;;;;;;85.07;26.05;;;6.60;99.90;;;;;;5082870;28;20036;-67
2022/11/29 00:16:41;;;;;;;187.13;38.58;;;;;;;;;;5089595;28;20397;-67
2022/11/29 00:19:08;;;;;;;96.03;27.92;;;6.80;99.90;;;;;;5071582;28;20343;-67
2022/11/29 00:21:34;;;;;;;133.68;33.70;;;;;;;;;;5084080;28;20131;-66
2022/11/29 00:24:00;;;;;;;79.68;24.85;;;;;;;;;;5064005;28;20047;-66
2022/11/29 00:26:26;;;;;;;74.05;24.80;;;6.60;99.90;;;;;;5083390;28;20051;-67
2022/11/29 00:28:52;;;;;;;94.57;27.77;;;;;;;;;;5073306;28;20105;-67
2022/11/29 00:31:21;;;;;;;80.95;25.60;;;6.30;99.90;;;;;;5084843;28;20075;-67
2022/11/29 00:33:46;;;;;;;87.07;27.60;;;6.70;99.90;;;;;;5073411;28;20072;-67
2022/11/29 00:36:13;;;;;;;65.55;23.77;;;6.70;99.90;;;;;;5088786;28;20074;-67
2022/11/29 00:38:39;;;;;;;70.85;25.17;;;;;;;;;;5061753;28;20486;-67
2022/11/29 00:41:05;;;;;;;80.88;25.77;;;;;;;;;;5077390;28;20043;-67
2022/11/29 00:43:31;;;;;;;115.25;31.30;;;;;;;;;;5091433;28;20070;-67
2022/11/29 00:45:56;;;;;;;119.43;33.20;;;6.80;99.90;;;;;;5054790;28;20037;-66
2022/11/29 00:48:22;;;;;;;97.53;28.42;;;6.70;99.90;;;;;;5088730;28;20023;-67
2022/11/29 00:50:48;;;;;;;107.68;31.35;;;6.50;99.90;;;;;;5080858;28;20050;-67
2022/11/29 00:53:14;;;;;;;97.40;31.42;;;;;;;;;;5082507;28;20036;-67
2022/11/29 00:55:40;;;;;;;127.38;33.97;;;;;;;;;;5089424;28;20046;-67
2022/11/29 00:58:06;;;;;;;128.15;34.08;;;;;;;;;;5076557;28;20720;-66
2022/11/29 01:00:32;;;;;;;122.30;33.17;;;;;;;;;;5090992;28;20505;-67
2022/11/29 01:02:58;;;;;;;112.68;31.45;;;6.60;99.90;;;;;;5080097;28;20028;-67
2022/11/29 01:05:24;;;;;;;94.05;28.70;;;;;;;;;;5093134;28;20115;-67
2022/11/29 01:07:49;;;;;;;83.47;26.83;;;6.40;99.90;;;;;;5071039;28;20040;-67
2022/11/29 01:10:15;;;;;;;81.05;24.90;;;;;;;;;;5087625;28;20378;-66
2022/11/29 01:12:41;;;;;;;66.85;23.48;;;;;;;;;;5075454;28;20040;-67
2022/11/29 01:15:08;;;;;;;57.28;22.77;;;5.80;99.90;;;;;;5076739;28;20468;-67
2022/11/29 01:17:36;;;;;;;86.82;27.67;;;6.40;99.90;;;;;;5073929;28;20114;-67
2022/11/29 01:20:03;;;;;;;50.92;21.92;;;6.40;99.90;;;;;;5082186;28;20119;-67
2022/11/29 01:22:28;;;;;;;54.60;21.50;;;6.50;99.90;;;;;;5082631;28;20401;-67
2022/11/29 01:24:54;;;;;;;53.85;22.33;;;;;;;;;;5086340;28;20032;-67
2022/11/29 01:27:23;;;;;;;42.20;19.92;;;;;;;;;;5084218;28;20104;-66
2022/11/29 01:29:49;;;;;;;43.53;19.65;;;6.40;99.90;;;;;;5069561;28;20042;-66
2022/11/29 01:32:15;;;;;;;38.58;18.73;;;6.40;99.90;;;;;;5083399;28;20028;-66
2022/11/29 01:34:41;;;;;;;50.30;23.92;;;;;;;;;;5074266;28;20382;-67
2022/11/29 01:37:07;;;;;;;43.08;21.45;;;;;;;;;;5075800;28;20097;-66
2022/11/29 01:39:33;;;;;;;41.33;19.77;;;;;;;;;;5077754;28;20124;-66
2022/11/29 01:41:59;;;;;;;51.58;21.73;;;;;;;;;;5077587;28;20112;-67
2022/11/29 01:44:25;;;;;;;41.00;19.63;;;;;;;;;;5082714;28;20419;-67
2022/11/29 01:46:53;;;;;;;43.38;21.00;;;;;;;;;;5090073;28;20124;-67
2022/11/29 01:49:41;;;;;;;39.85;20.33;;;7.10;99.90;;;;;;5089189;28;20092;-67
2022/11/29 01:52:16;;;;;;;46.25;21.63;;;;;;;;;;5073631;28;20037;-67
2022/11/29 01:54:44;;;;;;;39.50;18.70;;;;;;;;;;5059752;28;20045;-66
2022/11/29 01:57:10;;;;;;;47.33;20.88;;;;;;;;;;5082228;28;20048;-67
2022/11/29 01:59:41;;;;;;;33.17;16.70;;;;;;;;;;5088350;28;20186;-67
2022/11/29 02:02:11;;;;;;;35.65;19.40;;;;;;;;;;5094360;28;20035;-67
2022/11/29 02:04:38;;;;;;;42.35;19.23;;;6.50;99.90;;;;;;5084888;28;20154;-67
2022/11/29 02:07:04;;;;;;;44.70;20.15;;;;;;;;;;5080635;28;20032;-67
2022/11/29 02:09:30;;;;;;;37.53;19.20;;;;;;;;;;5109947;22;20129;-67
2022/11/29 02:12:28;;;;;;;41.92;19.92;;;6.20;99.90;;;;;;5022868;28;20064;-67
2022/11/29 02:15:10;;;;;;;39.67;19.35;;;6.90;99.90;;;;;;5007484;28;20394;-67
2022/11/29 02:17:58;;;;;;;35.83;18.13;;;6.20;99.90;;;;;;5027132;28;20068;-67
2022/11/29 02:20:45;;;;;;;36.70;18.23;;;;;;;;;;5026175;28;20048;-67
2022/11/29 02:23:46;;;;;;;35.25;17.33;;;;;;;;;;5014021;28;20041;-67
2022/11/29 02:26:12;;;;;;;38.53;19.05;;;;;;;;;;4948222;28;20405;-68
2022/11/29 02:29:01;;;;;;;40.50;19.80;;;;;;;;;;5012146;28;20151;-68
2022/11/29 02:31:33;;;;;;;42.45;19.10;;;;;;;;;;4991095;28;20463;-68
2022/11/29 02:34:05;;;;;;;41.22;17.73;;;6.10;99.90;;;;;;5012560;28;20041;-68
2022/11/29 02:36:44;;;;;;;49.45;22.88;;;;;;;;;;5007505;28;20038;-68
2022/11/29 02:39:43;;;;;;;48.05;20.98;;;;;;;;;;5001856;28;20045;-68
2022/11/29 02:42:12;;;;;;;39.50;18.38;;;;;;;;;;4961834;28;20108;-68
2022/11/29 02:44:38;;;;;;;39.80;19.02;;;;;;;;;;5018151;28;20049;-68
2022/11/29 02:47:32;;;;;;;42.20;19.65;;;6.60;99.90;;;;;;5019341;28;20044;-68
2022/11/29 02:50:28;;;;;;;44.38;20.58;;;5.70;99.90;;;;;;4999328;28;20056;-68
2022/11/29 02:53:20;;;;;;;51.17;20.63;;;6.10;99.90;;;;;;5021934;28;20048;-68
2022/11/29 02:56:07;;;;;;;34.35;17.83;;;6.00;99.90;;;;;;4999397;28;20127;-68
2022/11/29 02:59:02;;;;;;;40.03;18.52;;;5.90;99.90;;;;;;5020443;28;20132;-68
2022/11/29 03:01:28;;;;;;;41.15;20.13;;;;;;;;;;5003411;28;20478;-68
2022/11/29 03:04:03;;;;;;;51.85;22.90;;;;;;;;;;5019773;28;20034;-69
2022/11/29 03:06:38;;;;;;;40.67;19.98;;;;;;;;;;4999836;28;20042;-68
2022/11/29 03:09:07;;;;;;;37.53;18.25;;;;;;;;;;5009768;28;20065;-68
2022/11/29 03:11:33;;;;;;;40.00;18.17;;;;;;;;;;5008740;28;20399;-68
2022/11/29 03:14:14;;;;;;;42.08;19.40;;;;;;;;;;5022541;28;20048;-68
2022/11/29 03:16:40;;;;;;;34.63;17.65;;;;;;;;;;5006689;28;20048;-68
2022/11/29 03:19:35;;;;;;;35.17;18.17;;;6.00;99.90;;;;;;5004422;28;20041;-68
2022/11/29 03:22:13;;;;;;;34.17;17.65;;;;;;;;;;5020882;28;20415;-68
2022/11/29 03:24:55;;;;;;;33.38;18.35;;;;;;;;;;5013618;28;20056;-68
2022/11/29 03:27:23;;;;;;;34.60;18.00;;;;;;;;;;5002233;28;20072;-68
2022/11/29 03:29:57;;;;;;;38.90;18.15;;;6.10;99.90;;;;;;5018420;28;20088;-68
2022/11/29 03:32:54;;;;;;;38.45;18.35;;;6.10;99.90;;;;;;5013900;28;20049;-68
2022/11/29 03:35:55;;;;;;;37.50;18.38;;;6.60;99.90;;;;;;4986087;28;20038;-68
2022/11/29 03:38:27;;;;;;;34.05;17.23;;;;;;;;;;5026446;28;20041;-68
2022/11/29 03:41:24;;;;;;;30.95;16.77;;;6.30;99.90;;;;;;5024174;28;20033;-68
2022/11/29 03:44:07;;;;;;;40.00;19.55;;;;;;;;;;5023430;28;20033;-68
2022/11/29 03:46:56;;;;;;;37.53;18.85;;;;;;;;;;5029005;28;20048;-68
2022/11/29 03:49:29;;;;;;;31.30;16.95;;;6.30;99.90;;;;;;4988336;28;20431;-68
2022/11/29 03:52:14;;;;;;;31.10;16.95;;;;;;;;;;5011045;28;20403;-68
2022/11/29 03:54:59;;;;;;;30.40;16.55;;;6.20;99.90;;;;;;5005386;28;20144;-68
2022/11/29 03:57:37;;;;;;;34.17;16.00;;;6.60;99.90;;;;;;4998801;28;20037;-68
2022/11/29 04:00:09;;;;;;;34.65;16.80;;;;;;;;;;5020703;28;20083;-68
2022/11/29 04:02:38;;;;;;;32.65;17.73;;;;;;;;;;4999520;28;20495;-68
2022/11/29 04:05:07;;;;;;;34.88;17.50;;;;;;;;;;5024756;28;20037;-68
2022/11/29 04:07:56;;;;;;;41.30;18.42;;;;;;;;;;5005218;28;20411;-68
2022/11/29 04:10:26;;;;;;;40.38;18.67;;;;;;;;;;5002179;28;20042;-68
2022/11/29 04:13:10;;;;;;;45.40;20.73;;;;;;;;;;4996990;28;20048;-68
2022/11/29 04:16:08;;;;;;;40.92;18.42;;;6.30;99.90;;;;;;5026739;28;20052;-68
2022/11/29 04:18:37;;;;;;;48.97;22.13;;;;;;;;;;4998928;28;20037;-68
2022/11/29 04:21:21;;;;;;;47.13;20.67;;;5.40;99.90;;;;;;5017771;28;20096;-68
2022/11/29 04:23:56;;;;;;;47.22;20.38;;;5.80;99.90;;;;;;4997375;28;20479;-68
2022/11/29 04:26:33;;;;;;;42.13;18.95;;;;;;;;;;5024289;28;20084;-68
2022/11/29 04:29:05;;;;;;;38.78;19.15;;;;;;;;;;5002120;28;20038;-68
2022/11/29 04:32:01;;;;;;;37.90;17.95;;;5.60;99.90;;;;;;5024309;28;20169;-68
2022/11/29 04:34:36;;;;;;;37.92;18.20;;;5.70;99.90;;;;;;5010859;28;20077;-68
2022/11/29 04:37:33;;;;;;;36.38;17.23;;;6.00;99.90;;;;;;5019789;28;20428;-68
2022/11/29 04:40:17;;;;;;;37.05;18.60;;;6.00;99.90;;;;;;5008428;28;20069;-68
2022/11/29 04:43:01;;;;;;;29.00;15.55;;;5.90;99.90;;;;;;5019838;28;20410;-68
2022/11/29 04:45:49;;;;;;;32.20;15.75;;;5.90;99.90;;;;;;5019456;28;20037;-68
2022/11/29 04:48:49;;;;;;;30.83;16.67;;;6.00;99.90;;;;;;5000486;28;20095;-68
2022/11/29 04:51:18;;;;;;;38.65;18.17;;;;;;;;;;4991275;28;20053;-68
2022/11/29 04:54:27;;;;;;;47.35;20.98;;;5.90;99.90;;;;;;5011092;28;20099;-68
2022/11/29 04:57:13;;;;;;;34.33;16.75;;;;;;;;;;4963619;28;20053;-68
2022/11/29 05:00:07;;;;;;;32.10;16.13;;;5.60;99.90;;;;;;4982195;28;20045;-68
2022/11/29 05:02:51;;;;;;;38.03;16.30;;;6.00;99.90;;;;;;5023515;28;20406;-68
2022/11/29 05:05:25;;;;;;;36.38;16.80;;;5.70;99.90;;;;;;5001269;28;20038;-68
2022/11/29 05:08:29;;;;;;;41.35;17.27;;;6.60;99.90;;;;;;4996842;28;20559;-68
2022/11/29 05:11:01;;;;;;;43.38;19.48;;;6.00;99.90;;;;;;4990146;28;20054;-68
2022/11/29 05:13:33;;;;;;;35.60;17.40;;;5.80;99.90;;;;;;5003856;28;20128;-68
2022/11/29 05:16:17;;;;;;;37.65;17.80;;;;;;;;;;5025750;28;20411;-68
2022/11/29 05:19:10;;;;;;;37.35;16.38;;;;;;;;;;4996679;28;20048;-68
2022/11/29 05:21:39;;;;;;;34.55;16.90;;;;;;;;;;4996835;28;20054;-69
2022/11/29 05:24:05;;;;;;;37.33;17.73;;;;;;;;;;4995690;28;20113;-69
2022/11/29 05:26:47;;;;;;;36.72;17.48;;;6.00;99.90;;;;;;5016018;28;20139;-69
2022/11/29 05:29:30;;;;;;;35.60;16.85;;;;;;;;;;5029546;28;20088;-69
2022/11/29 05:32:10;;;;;;;45.45;19.30;;;;;;;;;;5001305;28;20439;-69
2022/11/29 05:34:44;;;;;;;42.08;18.88;;;;;;;;;;5011484;28;20037;-69
2022/11/29 05:37:38;;;;;;;33.37;15.77;;;5.80;99.90;;;;;;5009954;28;20041;-69
2022/11/29 05:40:20;;;;;;;33.13;17.55;;;;;;;;;;5024855;28;20412;-69
2022/11/29 05:43:11;;;;;;;38.55;16.88;;;;;;;;;;5018937;28;20045;-69
2022/11/29 05:45:57;;;;;;;38.05;17.83;;;;;;;;;;5000566;28;20060;-68
2022/11/29 05:48:45;;;;;;;38.85;18.30;;;5.90;99.90;;;;;;5009974;28;20046;-68
2022/11/29 05:51:17;;;;;;;44.33;19.38;;;;;;;;;;5015302;28;20091;-68
2022/11/29 05:54:02;;;;;;;45.42;19.33;;;;;;;;;;5004470;28;20538;-69
2022/11/29 05:56:36;;;;;;;38.30;19.35;;;;;;;;;;5000859;28;20403;-69
2022/11/29 05:59:07;;;;;;;38.65;18.25;;;;;;;;;;5022821;28;20079;-68
2022/11/29 06:01:55;;;;;;;37.83;17.63;;;;;;;;;;5015671;28;20530;-69
2022/11/29 06:04:39;;;;;;;43.45;19.73;;;;;;;;;;5020545;28;20176;-69
2022/11/29 06:07:18;;;;;;;43.75;19.55;;;5.70;99.90;;;;;;5015480;28;20051;-69
2022/11/29 06:09:55;;;;;;;39.78;18.15;;;;;;;;;;5017150;28;20030;-69
2022/11/29 06:12:23;;;;;;;44.63;18.83;;;;;;;;;;5017667;28;20070;-69
2022/11/29 06:15:12;;;;;;;40.08;17.23;;;5.40;99.90;;;;;;5011176;28;20042;-69
2022/11/29 06:17:45;;;;;;;43.25;18.33;;;;;;;;;;5007554;28;20561;-69
2022/11/29 06:20:39;;;;;;;41.97;17.65;;;6.00;99.90;;;;;;4992175;28;20414;-68
2022/11/29 06:23:05;;;;;;;34.85;16.88;;;;;;;;;;5025114;28;20438;-69
2022/11/29 06:25:49;;;;;;;41.00;16.90;;;;;;;;;;5025767;28;20033;-69
2022/11/29 06:28:18;;;;;;;32.15;16.98;;;6.00;99.90;;;;;;5020689;28;20040;-69
2022/11/29 06:31:04;;;;;;;36.05;16.23;;;;;;;;;;5006539;28;20056;-69
2022/11/29 06:33:30;;;;;;;41.50;18.40;;;;;;;;;;5021660;28;20037;-69
2022/11/29 06:35:59;;;;;;;40.58;18.27;;;;;;;;;;5021787;28;20037;-69
2022/11/29 06:38:27;;;;;;;42.45;18.25;;;;;;;;;;4987330;28;20034;-68
2022/11/29 06:40:54;;;;;;;37.60;16.48;;;;;;;;;;4981723;28;20062;-69
2022/11/29 06:43:20;;;;;;;33.53;16.27;;;;;;;;;;5002087;28;20443;-68
2022/11/29 06:45:51;;;;;;;43.38;17.90;;;;;;;;;;5016661;28;20482;-69
2022/11/29 06:48:25;;;;;;;38.78;16.90;;;7.10;99.90;;;;;;5002145;28;20115;-69
2022/11/29 06:51:17;;;;;;;37.88;15.45;;;;;;;;;;5006750;28;20548;-69
2022/11/29 06:53:49;;;;;;;32.30;15.27;;;;;;;;;;5029783;28;20415;-69
2022/11/29 06:56:28;;;;;;;34.17;15.65;;;6.10;99.90;;;;;;4999080;28;20038;-69
2022/11/29 06:59:17;;;;;;;41.45;16.13;;;;;;;;;;4993990;28;20088;-69
2022/11/29 07:01:47;;;;;;;39.17;15.15;;;;;;;;;;5028837;28;20046;-69
2022/11/29 07:04:16;;;;;;;37.58;14.88;;;;;;;;;;5035165;28;20441;-68
2022/11/29 07:06:42;;;;;;;31.30;13.70;;;;;;;;;;5030773;28;20545;-68
2022/11/29 07:09:17;;;;;;;30.48;13.07;;;7.30;99.90;;;;;;5028450;28;20038;-68
2022/11/29 07:11:44;;;;;;;34.63;14.70;;;;;;;;;;5032392;28;20052;-66
2022/11/29 07:14:10;;;;;;;38.13;13.40;;;;;;;;;;5011482;28;20041;-68
2022/11/29 07:16:54;;;;;;;32.00;12.75;;;;;;;;;;5013921;28;20095;-68
2022/11/29 07:19:23;;;;;;;32.13;12.48;;;;;;;;;;5028502;28;20049;-70
2022/11/29 07:22:20;;;;;;;34.72;14.88;;;7.30;99.90;;;;;;5009768;28;20755;-68
2022/11/29 07:24:46;;;;;;;28.85;11.45;;;;;;;;;;5020209;28;20363;-69
2022/11/29 07:27:19;;;;;;;31.80;11.88;;;;;;;;;;5001655;28;20067;-67
2022/11/29 07:30:04;;;;;;;29.67;11.75;;;;;;;;;;5030233;28;20041;-67
2022/11/29 07:32:33;;;;;;;26.27;11.32;;;;;;;;;;5022753;28;20077;-68
2022/11/29 07:35:37;;;;;;;34.78;11.00;;;;;;;;;;5015687;28;20053;-68
2022/11/29 07:38:48;;;;;;;33.17;10.05;;;7.10;99.90;;;;;;4938444;28;20070;-68
2022/11/29 07:41:19;;;;;;;29.25;10.00;;;;;;;;;;4929994;28;20087;-68
2022/11/29 07:43:49;;;;;;;30.52;10.05;;;;;;;;;;4994851;28;20052;-69
2022/11/29 07:46:15;;;;;;;30.90;10.13;;;;;;;;;;5003231;28;20044;-68
2022/11/29 07:48:41;;;;;;;22.55;9.73;;;7.10;99.90;;;;;;5019514;28;20124;-67
2022/11/29 07:51:07;;;;;;;34.65;10.85;;;;;;;;;;5020586;28;20083;-68
2022/11/29 07:53:42;;;;;;;24.55;9.38;;;7.10;99.90;;;;;;5002419;28;20041;-68
2022/11/29 07:56:08;;;;;;;27.23;9.82;;;;;;;;;;5030168;28;20167;-66
2022/11/29 07:58:34;;;;;;;22.65;9.27;;;;;;;;;;5027070;28;20037;-67
2022/11/29 08:01:01;;;;;;;26.98;9.30;;;;;;;;;;5029631;28;20051;-66
2022/11/29 08:03:27;;;;;;;30.80;10.13;;;;;;;;;;5031216;28;20033;-67
2022/11/29 08:05:53;;;;;;;26.08;9.60;;;7.00;99.90;;;;;;5012319;28;20044;-67
2022/11/29 08:08:19;;;;;;;25.88;9.05;;;;;;;;;;5013830;28;20120;-68
2022/11/29 08:10:46;;;;;;;27.83;9.73;;;;;;;;;;5087045;22;20040;-69
2022/11/29 08:13:12;;;;;;;28.65;9.55;;;;;;;;;;5051386;28;20033;-69
2022/11/29 08:15:43;;;;;;;26.75;7.95;;;7.00;99.90;;;;;;5050596;28;20105;-69
2022/11/29 08:18:09;;;;;;;22.00;7.60;;;;;;;;;;5031447;28;20530;-68
2022/11/29 08:20:35;;;;;;;24.30;8.85;;;7.10;99.90;;;;;;5033050;28;20072;-68
2022/11/29 08:23:02;;;;;;;16.90;6.72;;;;;;;;;;5032489;28;20043;-68
2022/11/29 08:25:28;;;;;;;22.58;7.05;;;;;;;;;;5031729;28;20079;-70
2022/11/29 08:27:54;;;;;;;23.52;7.07;;;;;;;;;;5030575;28;20116;-69
2022/11/29 08:30:21;;;;;;;27.23;8.63;;;;;;;;;;5039286;28;20136;-69
2022/11/29 08:32:48;;;;;;;19.67;8.27;;;7.60;99.90;;;;;;5038276;28;20140;-69
2022/11/29 08:35:15;;;;;;;22.45;7.25;;;;;;;;;;5027311;28;20044;-68
2022/11/29 08:37:40;;;;;;;22.85;7.65;;;7.60;99.90;;;;;;5031776;28;20041;-68
2022/11/29 08:40:07;;;;;;;24.33;6.85;;;7.60;99.90;;;;;;5032032;28;20120;-68
2022/11/29 08:42:32;;;;;;;22.05;7.40;;;7.70;99.90;;;;;;5040264;28;20034;-69
2022/11/29 08:44:58;;;;;;;24.88;7.45;;;7.70;99.90;;;;;;5035477;28;20060;-68
2022/11/29 08:47:36;;;;;;;22.35;7.22;;;;;;;;;;5036017;28;20034;-69
2022/11/29 08:50:04;;;;;;;20.60;8.25;;;;;;;;;;5030748;28;20411;-68
2022/11/29 08:55:27;;;;;;;20.35;7.20;;;;;;;;;;5030710;28;20045;-68
2022/11/29 08:57:54;;;;;;;27.65;9.57;;;;;;;;;;5037839;28;20033;-67
2022/11/29 09:00:20;;;;;;;27.48;8.38;;;8.00;99.90;;;;;;5028282;28;20033;-68
2022/11/29 09:02:46;;;;;;;26.73;8.25;;;8.10;99.90;;;;;;5016359;28;20052;-68
2022/11/29 09:05:13;;;;;;;22.35;7.90;;;;;;;;;;5024263;28;20124;-69
2022/11/29 09:07:40;;;;;;;20.40;8.15;;;;;;;;;;5031286;28;20103;-69
2022/11/29 09:10:08;;;;;;;21.83;7.28;;;8.50;99.90;;;;;;5021902;28;20258;-69
2022/11/29 09:12:40;;;;;;;28.60;8.07;;;8.70;99.90;;;;;;5024325;28;20411;-67
2022/11/29 09:15:08;;;;;;;23.52;7.70;;;8.20;99.90;;;;;;5028229;28;20048;-66
2022/11/29 09:17:34;;;;;;;24.00;7.85;;;;;;;;;;5038104;28;20045;-67
2022/11/29 09:20:00;;;;;;;23.08;7.13;;;;;;;;;;5027221;28;20053;-67
2022/11/29 09:22:26;;;;;;;21.95;7.57;;;;;;;;;;5024023;28;20380;-67
2022/11/29 09:24:52;;;;;;;20.38;7.97;;;8.50;99.90;;;;;;5030171;28;20064;-66
2022/11/29 09:27:18;;;;;;;23.02;7.22;;;;;;;;;;5028923;28;20041;-66
2022/11/29 09:29:44;;;;;;;21.42;6.70;;;;;;;;;;5034660;28;20107;-66
2022/11/29 09:32:10;;;;;;;25.10;7.50;;;8.60;99.90;;;;;;5028930;28;20037;-66
2022/11/29 09:34:36;;;;;;;23.30;6.55;;;;;;;;;;5030808;28;20033;-66
2022/11/29 09:37:03;;;;;;;21.80;7.70;;;;;;;;;;5033972;28;20056;-66
2022/11/29 09:39:28;;;;;;;21.35;6.82;;;8.70;99.90;;;;;;5027720;28;20045;-67
2022/11/29 09:41:58;;;;;;;24.67;6.85;;;;;;;;;;5033480;28;20111;-66
2022/11/29 09:44:59;;;;;;;24.02;6.88;;;9.10;99.90;;;;;;5029821;28;20037;-65
2022/11/29 09:47:41;;;;;;;21.75;7.00;;;;;;;;;;5025141;28;20426;-66
2022/11/29 09:50:19;;;;;;;18.75;6.95;;;;;;;;;;5030236;28;20068;-67
2022/11/29 09:53:07;;;;;;;23.88;7.28;;;8.40;99.90;;;;;;5029685;28;20053;-65
2022/11/29 09:55:52;;;;;;;31.38;7.97;;;8.70;99.90;;;;;;5028509;28;20040;-64
2022/11/29 09:58:25;;;;;;;25.00;7.55;;;8.90;99.90;;;;;;5027818;28;20419;-65
2022/11/29 10:00:57;;;;;;;24.52;7.60;;;9.00;99.90;;;;;;5030017;28;20029;-66
2022/11/29 10:03:26;;;;;;;23.95;7.85;;;;;;;;;;5028815;28;20029;-66
2022/11/29 10:06:18;;;;;;;29.85;10.02;;;;;;;;;;5029610;28;20574;-66
2022/11/29 10:08:54;;;;;;;28.88;9.35;;;;;;;;;;5012805;28;20671;-67
2022/11/29 10:11:41;;;;;;;26.02;7.85;;;;;;;;;;5029610;28;20581;-66
2022/11/29 10:14:19;;;;;;;25.40;7.55;;;;;;;;;;5029637;28;20048;-66
2022/11/29 10:17:03;;;;;;;26.73;6.93;;;;;;;;;;5029595;28;20037;-66
2022/11/29 10:19:35;;;;;;;25.90;8.30;;;;;;;;;;5032647;28;20041;-66
2022/11/29 10:22:05;;;;;;;23.27;7.40;;;;;;;;;;5033397;28;20310;-66
2022/11/29 10:24:32;;;;;;;28.73;8.15;;;;;;;;;;5031650;28;20044;-66
2022/11/29 10:26:58;;;;;;;24.45;7.32;;;;;;;;;;5032472;28;20065;-67
2022/11/29 10:29:24;;;;;;;24.83;6.80;;;;;;;;;;5033447;28;20406;-66
2022/11/29 10:31:53;;;;;;;26.52;8.80;;;;;;;;;;5021837;28;20044;-67
2022/11/29 10:34:21;;;;;;;25.45;7.57;;;;;;;;;;5046712;28;20080;-66
2022/11/29 10:36:52;;;;;;;26.05;7.72;;;9.90;99.90;;;;;;5047511;28;20040;-66
2022/11/29 10:39:21;;;;;;;23.52;7.97;;;8.90;99.90;;;;;;5030265;28;20418;-67
2022/11/29 10:41:49;;;;;;;23.15;7.28;;;;;;;;;;5028450;28;20034;-66
2022/11/29 10:44:15;;;;;;;23.20;8.40;;;;;;;;;;5027051;28;20033;-66
2022/11/29 10:46:41;;;;;;;26.95;9.65;;;;;;;;;;5024954;28;20423;-66
2022/11/29 10:49:14;;;;;;;31.75;9.00;;;10.50;99.90;;;;;;5031930;28;20787;-66
2022/11/29 10:51:40;;;;;;;24.65;8.25;;;10.50;99.90;;;;;;5034380;28;20195;-66
2022/11/29 10:54:31;;;;;;;30.77;9.65;;;11.20;99.90;;;;;;5031798;28;20033;-66
2022/11/29 10:56:58;;;;;;;21.80;7.25;;;;;;;;;;5029491;28;20034;-66
2022/11/29 10:59:27;;;;;;;21.85;9.23;;;10.50;99.90;;;;;;5031308;28;20041;-66
2022/11/29 11:01:53;;;;;;;21.50;9.20;;;10.60;99.90;;;;;;5036576;28;20426;-66
2022/11/29 11:04:24;;;;;;;21.83;10.50;;;;;;;;;;5034421;28;20499;-66
2022/11/29 11:06:54;;;;;;;21.67;9.98;;;;;;;;;;5037358;28;20396;-66
2022/11/29 11:09:35;;;;;;;21.83;10.48;;;;;;;;;;5032443;28;20388;-66
2022/11/29 11:12:24;;;;;;;24.60;10.70;;;10.10;99.90;;;;;;5031159;28;20065;-65
2022/11/29 11:14:50;;;;;;;20.08;11.25;;;10.20;99.90;;;;;;5037508;28;20036;-66
2022/11/29 11:17:24;;;;;;;27.63;12.98;;;;;;;;;;5039010;28;20091;-67
2022/11/29 11:20:20;;;;;;;29.10;11.00;;;10.70;99.90;;;;;;5034519;28;20047;-66
2022/11/29 11:23:01;;;;;;;24.83;11.52;;;10.70;99.90;;;;;;5037045;28;20033;-66
2022/11/29 11:25:27;;;;;;;20.10;11.43;;;;;;;;;;5029662;28;20057;-66
2022/11/29 11:27:53;;;;;;;28.35;11.98;;;10.70;99.90;;;;;;5031716;28;20060;-66
2022/11/29 11:30:27;;;;;;;26.63;14.18;;;;;;;;;;5027081;28;20042;-66
2022/11/29 11:33:11;;;;;;;21.23;12.02;;;;;;;;;;5030676;28;20037;-66
2022/11/29 11:35:37;;;;;;;27.50;13.52;;;;;;;;;;5030278;28;20042;-65
2022/11/29 11:38:03;;;;;;;23.63;12.25;;;;;;;;;;5022616;28;20052;-64
2022/11/29 11:40:30;;;;;;;19.38;11.98;;;;;;;;;;5027865;28;20036;-65
2022/11/29 11:42:57;;;;;;;23.98;12.70;;;;;;;;;;5025292;28;20037;-65
2022/11/29 11:45:37;;;;;;;26.23;12.98;;;10.60;99.90;;;;;;5029822;28;20087;-65
2022/11/29 11:48:10;;;;;;;21.75;12.77;;;;;;;;;;5029974;28;20067;-66
2022/11/29 11:50:43;;;;;;;22.63;13.85;;;10.90;99.90;;;;;;5030493;28;20033;-65
2022/11/29 11:53:22;;;;;;;24.67;13.35;;;;;;;;;;5028653;28;20125;-65
2022/11/29 11:55:56;;;;;;;21.80;13.68;;;;;;;;;;5035644;28;20499;-65
2022/11/29 11:58:24;;;;;;;26.80;14.82;;;;;;;;;;5027579;28;20049;-65
2022/11/29 12:00:54;;;;;;;21.83;13.73;;;;;;;;;;5038800;28;20393;-65
2022/11/29 12:03:29;;;;;;;19.30;13.00;;;;;;;;;;5033935;28;20529;-65
2022/11/29 12:06:12;;;;;;;25.67;13.35;;;11.10;99.90;;;;;;5024739;28;20041;-65
2022/11/29 12:08:38;;;;;;;20.52;13.10;;;12.20;99.90;;;;;;5019279;28;20125;-65
2022/11/29 12:11:06;;;;;;;15.07;10.55;;;;;;;;;;5024056;28;20460;-65
2022/11/29 12:13:36;;;;;;;15.32;10.27;;;12.00;99.90;;;;;;5024656;28;20037;-65
2022/11/29 12:16:28;;;;;;;15.73;10.18;;;;;;;;;;5035749;28;20040;-65
2022/11/29 12:19:04;;;;;;;16.40;10.43;;;;;;;;;;5032586;28;20056;-65
2022/11/29 12:21:37;;;;;;;15.98;11.88;;;;;;;;;;5032558;28;20029;-65
2022/11/29 12:24:20;;;;;;;18.27;10.73;;;;;;;;;;5027744;28;20040;-65
2022/11/29 12:26:47;;;;;;;16.88;10.75;;;;;;;;;;5024030;28;20449;-66
2022/11/29 12:29:14;;;;;;;14.38;9.70;;;;;;;;;;5028607;28;20069;-66
2022/11/29 12:32:01;;;;;;;15.02;9.18;;;;;;;;;;5028331;28;20528;-70
2022/11/29 12:34:46;;;;;;;15.70;9.15;;;;;;;;;;5028217;28;20510;-69
2022/11/29 12:37:27;;;;;;;14.32;9.63;;;;;;;;;;5028358;28;20076;-70
2022/11/29 12:40:02;;;;;;;18.63;10.10;;;;;;;;;;5016858;28;20551;-70
2022/11/29 12:42:46;;;;;;;14.07;9.30;;;11.50;99.90;;;;;;5037023;28;20044;-70
2022/11/29 12:45:24;;;;;;;16.88;10.05;;;;;;;;;;5025006;28;20065;-69
2022/11/29 12:47:59;;;;;;;13.38;8.55;;;;;;;;;;5027896;28;20414;-70
2022/11/29 12:50:31;;;;;;;15.73;9.32;;;;;;;;;;5031292;28;20052;-69
2022/11/29 12:53:22;;;;;;;14.80;9.23;;;11.00;99.90;;;;;;5025880;28;20059;-70
2022/11/29 12:56:17;;;;;;;15.05;9.40;;;10.70;99.90;;;;;;5015625;28;20076;-70
2022/11/29 12:59:02;;;;;;;16.40;9.60;;;11.40;99.90;;;;;;4998166;28;20115;-70
2022/11/29 13:01:49;;;;;;;14.63;9.15;;;11.40;99.90;;;;;;5032721;28;20052;-70
2022/11/29 13:04:23;;;;;;;16.23;9.57;;;;;;;;;;5023774;28;20042;-69
2022/11/29 13:06:55;;;;;;;15.25;9.82;;;;;;;;;;5029105;28;20037;-69
2022/11/29 13:09:27;;;;;;;15.75;10.25;;;;;;;;;;5025634;28;20033;-69
2022/11/29 13:11:53;;;;;;;15.18;10.23;;;;;;;;;;5025322;28;20040;-69
2022/11/29 13:14:30;;;;;;;15.82;8.38;;;;;;;;;;5025271;28;20041;-70
2022/11/29 13:17:07;;;;;;;10.90;6.22;;;10.50;99.90;;;;;;5033603;28;20625;-70
2022/11/29 13:19:49;;;;;;;11.48;6.60;;;;;;;;;;5035602;28;20048;-70
2022/11/29 13:22:18;;;;;;;10.07;6.38;;;;;;;;;;5025039;28;20040;-70
2022/11/29 13:24:52;;;;;;;11.82;7.38;;;;;;;;;;5026388;28;20037;-70
2022/11/29 13:27:32;;;;;;;11.93;7.30;;;10.60;99.90;;;;;;5018103;28;20068;-69
2022/11/29 13:29:59;;;;;;;9.70;6.72;;;9.90;99.90;;;;;;5024510;28;20033;-70
2022/11/29 13:32:34;;;;;;;9.65;6.35;;;;;;;;;;5028261;28;20037;-70
2022/11/29 13:35:29;;;;;;;9.40;6.85;;;10.80;99.90;;;;;;5023936;28;20139;-69
2022/11/29 13:37:58;;;;;;;10.70;6.53;;;;;;;;;;5020858;28;20064;-70
2022/11/29 13:40:47;;;;;;;10.48;6.35;;;10.60;99.90;;;;;;5029270;28;20518;-69
2022/11/29 13:43:29;;;;;;;10.55;6.90;;;;;;;;;;5027023;28;20032;-69
2022/11/29 13:46:00;;;;;;;9.45;6.88;;;;;;;;;;5021940;28;20112;-69
2022/11/29 13:48:33;;;;;;;11.25;6.90;;;;;;;;;;5023594;28;20069;-69
2022/11/29 13:51:19;;;;;;;9.68;6.40;;;;;;;;;;5025978;28;20040;-69
2022/11/29 13:53:45;;;;;;;9.48;6.10;;;;;;;;;;5032061;28;20037;-70
2022/11/29 13:56:24;;;;;;;9.52;6.22;;;;;;;;;;5032147;28;20436;-69
2022/11/29 13:58:54;;;;;;;10.45;6.80;;;;;;;;;;5030762;28;20045;-69
2022/11/29 14:01:21;;;;;;;9.50;7.30;;;10.40;99.90;;;;;;5032292;28;20049;-69
2022/11/29 14:04:21;;;;;;;10.02;7.22;;;10.60;99.90;;;;;;5033290;28;20041;-69
2022/11/29 14:06:48;;;;;;;9.68;6.72;;;;;;;;;;5037699;28;20037;-69
2022/11/29 14:09:19;;;;;;;9.70;7.45;;;;;;;;;;5032450;28;20041;-70
2022/11/29 14:11:53;;;;;;;11.30;7.53;;;;;;;;;;5027940;28;20041;-69
2022/11/29 14:14:27;;;;;;;9.50;6.78;;;10.70;99.90;;;;;;5029697;28;20095;-69
2022/11/29 14:16:56;;;;;;;9.63;6.75;;;;;;;;;;5033719;28;20029;-69
2022/11/29 14:19:30;;;;;;;8.70;6.13;;;;;;;;;;5042444;28;20044;-69
2022/11/29 14:22:01;;;;;;;11.68;7.43;;;9.90;99.90;;;;;;5041286;28;20041;-70
2022/11/29 14:27:06;;;;;;;10.85;7.40;;;;;;;;;;5028856;28;20522;-49
2022/11/29 14:29:52;;;;;;;14.43;8.30;;;9.90;99.90;;;;;;5031120;28;20490;-46
2022/11/29 14:32:48;;;;;;;14.65;8.48;;;10.10;99.90;;;;;;5032125;28;20045;-49